Terminal Aerodrome Forecast
Issued by NWS Grand Forks, ND

Home | Current Version | Previous Version | Graphics & Text | Print | Product List | Glossary On
Versions: 1 2 3 4 5 6 7 8 9 10 11 12 13 14 15 16 17 18
000
FTUS43 KFGF 211300 AAA
TAFFAR
TAF AMD
KFAR 211347Z 2114/2212 33018G26KT P6SM BKN018
      TEMPO 2114/2116 BKN025
     FM211600 33018KT P6SM BKN025
     FM211800 34018KT P6SM BKN040
     FM220000 34008KT P6SM SKC=

USA.gov is the U.S. government's official web portal to all federal, state and local government web resources and services.